Time;durP1;ratioP1;P1;durP2;ratioP2;P2;SDS_P1;SDS_P2;PMS_P1;PMS_P2;Temp;Humidity;BMP_temperature;BMP_pressure;BME280_temperature;BME280_humidity;BME280_pressure;Samples;Min_cycle;Max_cycle;Signal;HPM_P1;HPM_P2
2021/03/23 00:01:41;;;;;;;5.65;2.92;;;;;;;6.02;35.59;101855.97;4974520;28;96809;-74
2021/03/23 00:04:08;;;;;;;4.05;3.33;;;;;;;6.02;35.44;101868.28;4990006;28;97164;-75
2021/03/23 00:06:36;;;;;;;4.80;3.50;;;;;;;6.01;35.25;101862.06;5007006;28;99165;-74
2021/03/23 00:09:05;;;;;;;5.15;3.53;;;;;;;6.02;35.45;101862.97;4988247;28;97958;-74
2021/03/23 00:11:34;;;;;;;3.58;3.38;;;;;;;5.98;35.56;101856.63;5003399;28;96891;-74
2021/03/23 00:14:04;;;;;;;5.10;4.07;;;;;;;5.93;35.45;101860.75;4975475;28;96831;-74
2021/03/23 00:16:32;;;;;;;4.25;3.85;;;;;;;5.94;35.41;101859.03;4974181;28;97890;-74
2021/03/23 00:19:00;;;;;;;4.13;3.70;;;;;;;5.90;35.71;101867.59;4955819;28;99220;-74
2021/03/23 00:21:28;;;;;;;3.85;3.55;;;;;;;5.87;35.57;101860.38;5004181;28;97473;-74
2021/03/23 00:23:57;;;;;;;3.45;3.28;;;;;;;5.87;35.78;101864.75;5003492;28;96894;-74
2021/03/23 00:26:24;;;;;;;6.07;3.65;;;;;;;5.82;35.96;101860.94;4954699;28;99341;-75
2021/03/23 00:28:54;;;;;;;4.25;3.45;;;;;;;5.80;35.90;101863.50;5007515;28;98491;-74
2021/03/23 00:31:23;;;;;;;5.22;4.05;;;;;;;5.78;36.00;101864.22;4972562;28;97176;-74
2021/03/23 00:33:57;;;;;;;4.38;4.05;;;;;;;5.76;36.00;101864.13;4987209;28;97282;-74
2021/03/23 00:36:27;;;;;;;4.10;3.80;;;;;;;5.68;36.40;101859.25;4988894;28;98474;-74
2021/03/23 00:38:54;;;;;;;3.58;3.25;;;;;;;5.66;36.36;101859.16;4971473;28;96858;-75
2021/03/23 00:41:23;;;;;;;3.95;3.65;;;;;;;5.67;36.18;101853.03;4988329;28;96808;-74
2021/03/23 00:43:51;;;;;;;6.38;4.00;;;;;;;5.65;36.14;101852.03;4958226;28;96928;-75
2021/03/23 00:46:17;;;;;;;4.05;3.75;;;;;;;5.68;36.22;101853.97;4972740;28;98503;-75
2021/03/23 00:48:45;;;;;;;4.70;3.92;;;;;;;5.70;36.04;101847.97;4988006;28;99038;-75
2021/03/23 00:51:12;;;;;;;5.72;3.63;;;;;;;5.70;36.30;101850.59;4975326;28;97400;-75
2021/03/23 00:53:39;;;;;;;4.38;4.00;;;;;;;5.68;36.13;101852.25;4992355;28;96844;-75
2021/03/23 00:56:25;;;;;;;4.47;4.07;;;;;;;5.66;36.58;101851.25;4976408;28;97259;-75
2021/03/23 00:58:52;;;;;;;4.03;3.60;;;;;;;5.67;36.34;101845.13;4991413;28;99644;-75
2021/03/23 01:01:19;;;;;;;3.95;3.70;;;;;;;5.71;35.99;101857.69;4954179;28;96881;-75
2021/03/23 01:03:45;;;;;;;3.92;3.72;;;;;;;5.73;35.86;101841.94;4978694;28;96701;-75
2021/03/23 01:06:13;;;;;;;4.03;3.67;;;;;;;5.75;36.33;101854.41;4958475;28;99687;-75
2021/03/23 01:08:39;;;;;;;4.07;3.75;;;;;;;5.73;36.06;101849.84;5008699;28;98730;-74
2021/03/23 01:11:06;;;;;;;3.97;3.67;;;;;;;5.76;36.17;101852.66;4975202;28;96970;-75
2021/03/23 01:13:34;;;;;;;3.72;3.42;;;;;;;5.72;36.10;101846.28;4973876;28;97074;-75
2021/03/23 01:16:04;;;;;;;3.85;3.50;;;;;;;5.69;36.47;101859.31;4975877;28;97583;-75
2021/03/23 01:18:31;;;;;;;4.32;3.40;;;;;;;5.70;36.31;101858.53;4975593;28;97599;-75
2021/03/23 01:20:58;;;;;;;3.45;3.35;;;;;;;5.78;36.09;101862.50;5011161;27;96781;-74
2021/03/23 01:23:24;;;;;;;3.33;3.13;;;;;;;5.77;36.15;101858.06;4962070;28;97229;-75
2021/03/23 01:25:51;;;;;;;3.53;3.30;;;;;;;5.76;35.96;101858.84;5006251;27;99983;-75
2021/03/23 01:28:18;;;;;;;3.45;3.15;;;;;;;5.78;36.20;101857.22;5009606;28;100661;-75
2021/03/23 01:30:46;;;;;;;3.83;3.42;;;;;;;5.69;36.33;101864.63;5009120;27;97270;-75
2021/03/23 01:33:13;;;;;;;3.13;2.92;;;;;;;5.73;36.37;101865.69;4990668;28;96887;-75
2021/03/23 01:35:40;;;;;;;4.00;3.17;;;;;;;5.70;36.41;101862.88;4974096;28;98501;-75
2021/03/23 01:38:07;;;;;;;3.05;2.95;;;;;;;5.66;36.51;101864.44;5009001;28;98502;-75
2021/03/23 01:40:34;;;;;;;2.90;2.70;;;;;;;5.58;36.26;101865.72;4992129;28;97260;-75
2021/03/23 01:43:03;;;;;;;3.42;2.95;;;;;;;5.56;36.41;101863.78;4990063;28;96880;-75
2021/03/23 01:45:34;;;;;;;3.05;2.85;;;;;;;5.53;37.33;101863.63;4975595;28;99213;-75
2021/03/23 01:48:05;;;;;;;2.70;2.60;;;;;;;5.58;36.67;101865.72;5008378;28;96943;-75
2021/03/23 01:50:32;;;;;;;2.90;2.70;;;;;;;5.64;36.36;101867.81;4971077;28;96886;-75
2021/03/23 01:53:06;;;;;;;2.80;2.65;;;;;;;5.64;36.62;101868.72;4958280;28;96942;-75
2021/03/23 01:55:33;;;;;;;3.95;3.03;;;;;;;5.63;36.15;101869.53;4976054;28;101640;-75
2021/03/23 01:58:00;;;;;;;3.13;2.42;;;;;;;5.66;36.35;101875.00;5004547;27;98775;-75
2021/03/23 02:00:28;;;;;;;3.20;2.85;;;;;;;5.68;36.41;101872.44;4976984;28;97546;-75
2021/03/23 02:02:54;;;;;;;3.28;2.97;;;;;;;5.65;36.32;101875.81;4957188;28;97735;-75
2021/03/23 02:05:26;;;;;;;4.93;3.10;;;;;;;5.66;36.32;101872.38;4973715;28;99440;-75
2021/03/23 02:07:54;;;;;;;2.95;2.85;;;;;;;5.64;36.33;101871.38;4978361;28;100504;-75
2021/03/23 02:10:21;;;;;;;2.58;2.58;;;;;;;5.61;36.46;101870.28;4973270;28;96815;-74
2021/03/23 02:12:49;;;;;;;2.72;2.72;;;;;;;5.54;36.46;101861.06;4976346;28;96954;-74
2021/03/23 02:15:19;;;;;;;2.80;2.60;;;;;;;5.46;36.80;101859.72;5006838;28;98724;-74
2021/03/23 02:18:05;;;;;;;2.63;2.50;;;;;;;5.43;37.72;101864.81;4975935;28;96660;-75
2021/03/23 02:20:33;;;;;;;3.15;2.95;;;;;;;5.38;36.74;101863.63;5005411;28;96896;-75
2021/03/23 02:23:07;;;;;;;2.55;2.40;;;;;;;5.34;37.38;101872.19;4973389;28;97427;-75
2021/03/23 02:25:34;;;;;;;2.53;2.53;;;;;;;5.32;36.89;101868.53;4975669;28;99481;-75
2021/03/23 02:28:01;;;;;;;2.30;2.30;;;;;;;5.32;37.02;101873.81;5004389;28;97943;-75
2021/03/23 02:30:31;;;;;;;3.03;2.30;;;;;;;5.33;36.71;101867.75;5006662;28;96779;-75
2021/03/23 02:32:58;;;;;;;5.10;2.38;;;;;;;5.32;36.81;101865.03;4974568;28;96895;-75
2021/03/23 02:35:30;;;;;;;2.38;2.38;;;;;;;5.37;36.63;101876.75;4973350;28;100156;-75
2021/03/23 02:37:57;;;;;;;2.30;2.30;;;;;;;5.34;36.81;101869.53;5008029;28;99213;-75
2021/03/23 02:40:44;;;;;;;2.92;2.83;;;;;;;5.32;36.71;101865.03;4974554;28;96825;-75
2021/03/23 02:43:12;;;;;;;2.55;2.45;;;;;;;5.32;36.73;101870.28;4973890;28;96880;-75
2021/03/23 02:45:39;;;;;;;2.95;2.72;;;;;;;5.35;36.59;101875.75;4977356;28;98209;-74
2021/03/23 02:48:07;;;;;;;2.50;2.50;;;;;;;5.36;36.48;101881.09;4975145;28;98511;-74
2021/03/23 02:50:34;;;;;;;2.97;2.83;;;;;;;5.36;36.58;101877.59;4974228;28;96827;-74
2021/03/23 02:53:02;;;;;;;2.38;2.38;;;;;;;5.37;36.58;101872.38;4976220;28;96930;-75
2021/03/23 02:55:29;;;;;;;2.40;2.40;;;;;;;5.42;36.32;101876.19;4974603;28;100548;-74
2021/03/23 02:57:56;;;;;;;3.90;2.25;;;;;;;5.47;36.34;101880.00;4976180;28;98922;-74
2021/03/23 03:00:24;;;;;;;2.78;2.67;;;;;;;5.53;36.34;101880.38;4971640;28;97311;-74
2021/03/23 03:02:52;;;;;;;2.33;2.33;;;;;;;5.51;36.38;101894.31;4985214;28;96949;-74
2021/03/23 03:05:19;;;;;;;2.40;2.40;;;;;;;5.49;36.48;101891.56;4954524;28;99966;-74
2021/03/23 03:07:46;;;;;;;2.58;2.47;;;;;;;5.46;36.70;101890.50;4956393;28;98791;-74
2021/03/23 03:10:13;;;;;;;2.40;2.40;;;;;;;5.48;36.34;101892.41;4972910;28;97423;-75
2021/03/23 03:13:01;;;;;;;2.35;2.25;;;;;;;5.45;36.44;101900.13;4974444;28;97400;-75
2021/03/23 03:15:28;;;;;;;3.20;3.10;;;;;;;5.44;36.47;101900.97;4971545;28;98850;-75
2021/03/23 03:17:56;;;;;;;2.58;2.55;;;;;;;5.33;36.71;101901.13;4973218;28;97403;-75
2021/03/23 03:20:24;;;;;;;2.70;2.70;;;;;;;5.29;36.93;101901.75;4954862;28;96781;-75
2021/03/23 03:22:51;;;;;;;2.80;2.70;;;;;;;5.34;36.79;101905.63;4974515;28;96922;-76
2021/03/23 03:25:20;;;;;;;2.75;2.65;;;;;;;5.30;36.89;101898.31;5009371;28;98871;-76
2021/03/23 03:27:47;;;;;;;2.70;2.70;;;;;;;5.31;37.26;101905.41;4970926;28;99892;-75
2021/03/23 03:30:21;;;;;;;2.50;2.40;;;;;;;5.37;36.94;101905.78;4974651;28;96860;-75
2021/03/23 03:32:49;;;;;;;3.00;2.80;;;;;;;5.40;36.86;101909.50;4974790;28;97363;-75
2021/03/23 03:35:16;;;;;;;2.50;2.40;;;;;;;5.46;36.53;101901.03;4973191;28;99132;-75
2021/03/23 03:37:43;;;;;;;2.75;2.60;;;;;;;5.55;36.36;101912.16;4973888;28;98529;-75
2021/03/23 03:40:12;;;;;;;2.95;2.83;;;;;;;5.60;36.63;101906.31;5005483;27;96791;-75
2021/03/23 03:42:39;;;;;;;2.67;2.58;;;;;;;5.67;36.64;101918.13;4973288;28;96830;-76
2021/03/23 03:45:08;;;;;;;2.92;2.75;;;;;;;5.71;36.51;101915.78;4971968;28;100031;-75
2021/03/23 03:47:36;;;;;;;2.60;2.50;;;;;;;5.78;36.25;101909.13;5002656;28;98767;-75
2021/03/23 03:50:05;;;;;;;2.67;2.42;;;;;;;5.79;36.30;101916.25;4973045;28;96753;-75
2021/03/23 03:52:32;;;;;;;6.32;2.80;;;;;;;5.81;36.33;101918.13;4973455;28;96855;-76
2021/03/23 03:54:59;;;;;;;2.70;2.50;;;;;;;5.83;36.50;101911.22;4973791;28;100285;-76
2021/03/23 03:57:25;;;;;;;2.75;2.65;;;;;;;5.88;36.31;101912.41;4985606;28;96723;-76
2021/03/23 03:59:55;;;;;;;3.05;2.85;;;;;;;5.85;36.42;101913.97;4973410;28;97819;-73
2021/03/23 04:02:21;;;;;;;2.78;2.50;;;;;;;5.80;36.61;101916.31;5003971;28;96947;-73
2021/03/23 04:04:49;;;;;;;2.60;2.42;;;;;;;5.74;36.71;101910.69;4972172;28;98165;-74
2021/03/23 04:07:16;;;;;;;2.50;2.40;;;;;;;5.69;36.84;101909.50;4972889;28;97091;-73
2021/03/23 04:09:43;;;;;;;2.65;2.55;;;;;;;5.68;37.01;101906.78;4953435;28;96831;-75
2021/03/23 04:12:11;;;;;;;2.75;2.65;;;;;;;5.65;37.09;101920.69;4986020;28;96771;-73
2021/03/23 04:14:37;;;;;;;3.13;2.92;;;;;;;5.70;36.77;101918.34;4971095;28;97826;-73
2021/03/23 04:17:05;;;;;;;2.60;2.50;;;;;;;5.77;36.49;101920.53;4973417;28;99680;-73
2021/03/23 04:19:32;;;;;;;3.00;2.90;;;;;;;5.80;36.69;101918.03;4971495;28;97148;-75
2021/03/23 04:22:00;;;;;;;5.22;3.08;;;;;;;5.87;36.71;101921.13;4956300;28;96805;-75
2021/03/23 04:24:27;;;;;;;2.97;2.88;;;;;;;5.89;36.67;101926.50;4988806;28;98904;-75
2021/03/23 04:26:54;;;;;;;3.00;2.90;;;;;;;5.89;36.77;101927.41;5005486;28;98888;-74
2021/03/23 04:29:20;;;;;;;3.58;3.38;;;;;;;5.89;36.39;101921.22;4971167;28;96888;-74
2021/03/23 04:31:47;;;;;;;2.80;2.70;;;;;;;5.86;36.82;101929.91;4976365;28;96950;-74
2021/03/23 04:34:15;;;;;;;2.92;2.83;;;;;;;5.83;36.93;101927.06;4976632;28;96806;-74
2021/03/23 04:37:00;;;;;;;3.28;3.10;;;;;;;5.81;36.83;101928.69;4973468;28;96768;-74
2021/03/23 04:39:27;;;;;;;3.28;2.80;;;;;;;5.73;36.93;101935.28;4973960;28;96889;-73
2021/03/23 04:41:54;;;;;;;3.22;3.03;;;;;;;5.74;36.84;101934.44;4976742;28;96752;-75
2021/03/23 04:44:21;;;;;;;4.15;2.90;;;;;;;5.79;36.88;101940.00;4971779;28;98914;-75
2021/03/23 04:46:48;;;;;;;3.50;3.30;;;;;;;5.72;37.14;101943.13;4989818;28;96810;-75
2021/03/23 04:49:15;;;;;;;3.17;2.95;;;;;;;5.72;36.93;101932.56;4989836;28;96884;-75
2021/03/23 04:51:43;;;;;;;3.17;3.05;;;;;;;5.71;37.14;101942.19;4991306;28;96888;-75
2021/03/23 04:54:11;;;;;;;3.42;3.22;;;;;;;5.69;36.93;101949.13;4989365;28;99431;-75
2021/03/23 04:56:40;;;;;;;4.15;3.85;;;;;;;5.68;37.24;101949.94;4973712;28;102167;-76
2021/03/23 04:59:08;;;;;;;3.40;3.30;;;;;;;5.67;37.13;101944.56;5009304;28;96795;-73
2021/03/23 05:01:37;;;;;;;3.38;3.13;;;;;;;5.68;37.07;101949.03;4982398;28;97266;-75
2021/03/23 05:04:07;;;;;;;3.10;2.97;;;;;;;5.68;37.61;101951.66;4970548;28;97823;-74
2021/03/23 05:06:34;;;;;;;2.88;2.78;;;;;;;5.66;37.37;101950.66;4964949;28;97258;-74
2021/03/23 05:09:02;;;;;;;2.88;2.70;;;;;;;5.62;37.47;101952.22;4970810;28;96784;-75
2021/03/23 05:11:32;;;;;;;2.90;2.80;;;;;;;5.66;37.41;101948.94;4985952;28;97358;-73
2021/03/23 05:13:59;;;;;;;3.38;3.05;;;;;;;5.61;37.45;101946.84;5006477;28;99310;-74
2021/03/23 05:16:27;;;;;;;2.70;2.60;;;;;;;5.59;37.39;101949.41;4974515;28;100145;-77
2021/03/23 05:18:55;;;;;;;3.10;3.00;;;;;;;5.56;37.34;101951.84;4970449;28;97606;-74
2021/03/23 05:21:22;;;;;;;4.03;3.80;;;;;;;5.55;37.42;101960.59;5006547;27;96892;-73
2021/03/23 05:23:53;;;;;;;3.60;3.50;;;;;;;5.51;37.62;101958.59;4991815;28;96860;-74
2021/03/23 05:26:19;;;;;;;4.13;3.20;;;;;;;5.50;37.67;101962.06;4954907;28;100097;-76
2021/03/23 05:28:47;;;;;;;3.85;3.60;;;;;;;5.52;37.53;101968.31;4965852;28;96965;-73
2021/03/23 05:31:15;;;;;;;3.35;3.15;;;;;;;5.51;37.49;101965.59;5006178;27;97050;-74
2021/03/23 05:33:42;;;;;;;3.20;3.10;;;;;;;5.49;37.71;101964.56;4974176;28;99754;-76
2021/03/23 05:36:10;;;;;;;3.05;2.90;;;;;;;5.40;38.31;101958.75;4984832;28;99224;-72
2021/03/23 05:38:37;;;;;;;3.40;3.25;;;;;;;5.40;37.99;101962.31;4937096;28;97161;-74
2021/03/23 05:41:06;;;;;;;4.10;3.70;;;;;;;5.38;37.81;101955.09;4950660;28;97433;-74
2021/03/23 05:43:51;;;;;;;3.75;3.55;;;;;;;5.38;38.30;101950.75;4980443;27;99424;-75
2021/03/23 05:46:23;;;;;;;3.47;3.38;;;;;;;5.40;37.96;101966.66;4950773;28;98402;-76
2021/03/23 05:48:57;;;;;;;3.80;3.55;;;;;;;5.39;38.07;101956.94;4951518;28;96939;-75
2021/03/23 05:51:27;;;;;;;6.45;5.10;;;;;;;5.38;37.73;101956.00;4933471;28;97872;-75
2021/03/23 05:53:58;;;;;;;4.47;3.70;;;;;;;5.41;37.96;101950.91;4951401;28;96947;-75
2021/03/23 05:56:25;;;;;;;3.22;3.13;;;;;;;5.40;38.07;101964.94;4981337;28;98245;-75
2021/03/23 05:58:53;;;;;;;3.90;3.65;;;;;;;5.43;37.91;101966.88;4955181;28;97536;-75
2021/03/23 06:01:25;;;;;;;4.13;3.88;;;;;;;5.36;38.31;101968.22;4971044;28;97001;-75
2021/03/23 06:03:57;;;;;;;3.80;3.50;;;;;;;5.44;37.84;101966.03;4931021;28;99574;-75
2021/03/23 06:06:48;;;;;;;4.00;3.80;;;;;;;5.46;38.18;101965.31;4958012;28;96890;-75
2021/03/23 06:09:16;;;;;;;5.07;4.18;;;;;;;5.44;37.88;101971.31;4936807;28;97590;-76
2021/03/23 06:11:54;;;;;;;3.83;3.63;;;;;;;5.43;38.41;101970.41;4990129;28;96767;-75
2021/03/23 06:14:30;;;;;;;4.65;3.75;;;;;;;5.37;38.76;101964.78;4949641;28;99683;-74
2021/03/23 06:17:04;;;;;;;5.15;3.38;;;;;;;5.36;38.39;101960.28;4962089;28;97514;-74
2021/03/23 06:19:39;;;;;;;3.80;3.60;;;;;;;5.34;38.38;101969.84;4991956;28;98633;-75
2021/03/23 06:22:16;;;;;;;3.45;3.25;;;;;;;5.28;38.85;101966.84;4949413;28;96951;-75
2021/03/23 06:24:47;;;;;;;4.28;3.92;;;;;;;5.32;38.04;101966.19;4945841;28;98670;-74
2021/03/23 06:27:19;;;;;;;4.32;4.03;;;;;;;5.33;38.90;101968.03;4980405;28;98861;-74
2021/03/23 06:30:44;;;;;;;3.50;3.35;;;;;;;5.32;40.51;101971.47;4955409;28;676057;-75
2021/03/23 06:33:13;;;;;;;3.83;3.63;;;;;;;5.30;38.58;101964.28;4892344;28;97391;-75
2021/03/23 06:35:42;;;;;;;5.22;4.75;;;;;;;5.34;38.27;101968.94;4888770;28;96923;-75
2021/03/23 06:38:24;;;;;;;3.92;3.72;;;;;;;5.30;38.74;101967.84;4911879;28;98993;-76
2021/03/23 06:41:18;;;;;;;3.38;3.28;;;;;;;5.30;39.29;101967.84;4995088;27;96948;-75
2021/03/23 06:43:47;;;;;;;3.78;3.58;;;;;;;5.35;38.39;101973.41;4997587;28;97296;-75
2021/03/23 06:46:24;;;;;;;4.30;3.92;;;;;;;5.32;38.44;101968.84;4966210;28;97820;-75
2021/03/23 06:49:03;;;;;;;4.80;4.50;;;;;;;5.41;39.63;101972.03;4949972;28;98229;-74
2021/03/23 06:51:30;;;;;;;4.28;3.97;;;;;;;5.40;39.45;101974.59;4996290;28;97721;-74
2021/03/23 06:54:13;;;;;;;4.03;3.72;;;;;;;5.40;40.01;101975.50;4945267;28;97785;-75
2021/03/23 06:56:40;;;;;;;5.45;4.95;;;;;;;5.45;39.29;101973.16;4954047;28;100156;-76
2021/03/23 06:59:14;;;;;;;4.07;3.88;;;;;;;5.52;39.00;101976.22;4946456;28;98949;-74
2021/03/23 07:01:43;;;;;;;4.40;4.10;;;;;;;5.60;38.98;101979.34;4961099;28;97022;-74
2021/03/23 07:04:29;;;;;;;5.18;4.50;;;;;;;5.66;39.70;101978.00;4964979;28;96976;-75
2021/03/23 07:07:12;;;;;;;5.82;3.90;;;;;;;5.71;39.45;101980.88;4963029;28;98378;-75
2021/03/23 07:09:48;;;;;;;5.68;5.07;;;;;;;5.68;39.21;101968.44;4981884;28;99728;-75
2021/03/23 07:12:16;;;;;;;4.68;4.28;;;;;;;5.74;38.79;101967.91;4962441;28;97515;-75
2021/03/23 07:14:46;;;;;;;5.30;4.80;;;;;;;5.79;38.70;101969.06;4944626;28;96933;-75
2021/03/23 07:17:26;;;;;;;4.47;4.18;;;;;;;5.79;39.41;101964.69;4965744;28;97654;-75
2021/03/23 07:19:59;;;;;;;5.25;4.32;;;;;;;5.77;39.12;101979.53;4959467;28;96888;-75
2021/03/23 07:22:34;;;;;;;4.93;4.53;;;;;;;5.79;38.98;101972.63;4983437;28;96891;-75
2021/03/23 07:25:04;;;;;;;4.70;4.32;;;;;;;5.81;38.76;101978.88;4969056;28;96943;-74
2021/03/23 07:27:31;;;;;;;5.10;4.60;;;;;;;5.78;38.90;101976.06;4980096;28;97959;-75
2021/03/23 07:30:16;;;;;;;5.38;5.00;;;;;;;5.67;39.47;101982.44;4966766;28;98906;-75
2021/03/23 07:32:47;;;;;;;5.10;4.68;;;;;;;5.62;39.52;101975.06;4981948;28;97092;-75
2021/03/23 07:35:22;;;;;;;6.25;4.47;;;;;;;5.62;39.24;101982.97;5001496;27;97869;-75
2021/03/23 07:37:52;;;;;;;4.80;4.40;;;;;;;5.67;38.94;101981.53;4962681;28;98115;-74
2021/03/23 07:40:28;;;;;;;5.97;4.53;;;;;;;5.66;39.01;101975.34;4958985;28;97928;-74
2021/03/23 07:43:03;;;;;;;4.65;4.05;;;;;;;5.62;39.48;101978.63;4968480;28;97192;-75
2021/03/23 07:45:37;;;;;;;5.53;4.80;;;;;;;5.54;39.62;101985.16;4966307;28;96992;-75
2021/03/23 07:48:11;;;;;;;5.68;3.67;;;;;;;5.49;39.31;101977.78;4963251;28;98979;-74
2021/03/23 07:50:39;;;;;;;3.92;3.50;;;;;;;5.48;39.01;101982.16;4997576;28;96945;-76
2021/03/23 07:53:11;;;;;;;4.07;3.88;;;;;;;5.48;39.03;101984.81;4998827;28;97344;-76
2021/03/23 07:55:38;;;;;;;4.32;4.03;;;;;;;5.51;38.79;101994.63;4970987;28;97087;-75
2021/03/23 07:58:26;;;;;;;4.25;3.85;;;;;;;5.57;39.34;101984.44;4966200;28;99833;-74
2021/03/23 08:01:12;;;;;;;4.00;3.80;;;;;;;5.56;39.54;101996.72;4994362;27;98487;-75
2021/03/23 08:04:00;;;;;;;4.13;3.88;;;;;;;5.60;39.15;101993.47;4957769;28;97330;-74
2021/03/23 08:06:34;;;;;;;3.38;3.15;;;;;;;5.58;39.16;101992.44;4966941;28;97211;-75
2021/03/23 08:09:17;;;;;;;4.20;3.88;;;;;;;5.49;40.34;101993.63;4993725;28;98609;-75
2021/03/23 08:11:53;;;;;;;4.82;4.40;;;;;;;5.55;39.10;101989.63;4994536;28;97983;-76
2021/03/23 08:14:31;;;;;;;4.68;4.38;;;;;;;5.61;39.13;101997.91;4962518;28;96949;-73
2021/03/23 08:17:12;;;;;;;4.60;4.20;;;;;;;5.57;41.06;101988.00;4967347;28;96848;-74
2021/03/23 08:20:08;;;;;;;5.00;4.50;;;;;;;5.64;40.03;101990.19;5000310;28;98759;-75
2021/03/23 08:23:04;;;;;;;5.57;4.38;;;;;;;5.74;39.03;101986.38;4955166;28;97183;-74
2021/03/23 08:25:41;;;;;;;5.18;4.65;;;;;;;5.78;39.24;101981.34;4961055;28;97183;-75
2021/03/23 08:28:25;;;;;;;6.72;4.40;;;;;;;5.80;39.08;101990.28;4965262;28;96927;-73
2021/03/23 08:31:04;;;;;;;4.50;4.30;;;;;;;5.86;38.83;101992.38;4997071;28;96932;-75
2021/03/23 08:33:46;;;;;;;5.35;4.70;;;;;;;5.88;38.97;101994.31;4961435;28;97957;-74
2021/03/23 08:36:26;;;;;;;4.78;4.25;;;;;;;5.82;39.40;102001.84;4994513;28;97092;-73
2021/03/23 08:38:57;;;;;;;5.47;5.07;;;;;;;5.79;38.79;101995.47;4943669;28;96767;-75
2021/03/23 08:41:33;;;;;;;5.15;4.00;;;;;;;5.85;38.73;101988.81;4980216;28;100619;-72
2021/03/23 08:44:00;;;;;;;4.55;4.22;;;;;;;5.89;38.65;101985.53;4946206;28;98032;-74
2021/03/23 08:46:30;;;;;;;4.70;4.30;;;;;;;5.94;38.40;101991.09;4962319;28;97251;-73
2021/03/23 08:48:59;;;;;;;4.53;4.13;;;;;;;6.00;38.37;101994.09;4995667;28;96943;-74
2021/03/23 08:51:29;;;;;;;4.63;4.22;;;;;;;6.07;38.44;101990.97;4976737;28;97830;-73
2021/03/23 08:53:58;;;;;;;4.75;4.45;;;;;;;6.14;38.08;101982.63;4961580;28;97241;-76
2021/03/23 08:56:54;;;;;;;4.82;4.53;;;;;;;6.23;38.93;101977.84;4947583;28;96843;-73
2021/03/23 08:59:50;;;;;;;4.60;4.15;;;;;;;6.33;38.31;101979.31;4986907;27;96877;-75
2021/03/23 09:02:45;;;;;;;4.32;3.90;;;;;;;6.45;38.34;101985.31;4965900;28;98721;-75
2021/03/23 09:05:40;;;;;;;4.55;4.15;;;;;;;6.52;38.25;101993.69;4961638;28;97078;-75
2021/03/23 09:08:36;;;;;;;3.97;3.78;;;;;;;6.57;38.06;101989.56;4990149;28;96700;-75
2021/03/23 09:11:06;;;;;;;4.47;4.18;;;;;;;6.59;37.71;101994.94;4976588;28;97144;-74
2021/03/23 09:14:03;;;;;;;7.15;4.78;;;;;;;6.66;38.51;101998.00;4959827;28;97140;-74
2021/03/23 09:17:02;;;;;;;4.85;4.47;;;;;;;6.67;38.04;102014.78;4946927;28;100848;-76
2021/03/23 09:19:33;;;;;;;5.22;4.82;;;;;;;6.66;37.43;102012.97;4964804;28;96953;-75
2021/03/23 09:22:32;;;;;;;6.60;5.93;;;;;;;6.62;38.35;102021.53;4964460;28;97330;-75
2021/03/23 09:25:47;;;;;;;5.75;5.25;;;;;;;6.60;38.29;102018.81;4963949;28;97602;-75
2021/03/23 09:28:50;;;;;;;5.50;5.00;;;;;;;6.60;38.36;102028.47;4947334;28;98790;-74
2021/03/23 09:31:35;;;;;;;6.82;5.30;;;;;;;6.59;37.42;102034.59;4937237;28;97278;-75
2021/03/23 09:34:42;;;;;;;5.35;4.95;;;;;;;6.56;37.84;102031.78;4979002;28;96910;-75
2021/03/23 09:37:30;;;;;;;5.80;5.25;;;;;;;6.47;38.20;102041.84;4963670;28;97012;-75
2021/03/23 09:39:58;;;;;;;5.32;4.78;;;;;;;6.40;38.12;102035.28;4979819;28;99487;-75
2021/03/23 09:42:31;;;;;;;5.72;5.22;;;;;;;6.42;38.14;102041.56;4967221;28;97844;-75
2021/03/23 09:45:34;;;;;;;5.18;4.68;;;;;;;6.37;38.42;102040.41;4965212;28;97271;-75
2021/03/23 09:48:34;;;;;;;6.97;5.25;;;;;;;6.36;38.01;102050.88;4963475;28;97162;-74
2021/03/23 09:51:13;;;;;;;8.35;6.60;;;;;;;6.41;38.02;102036.19;4962023;28;97037;-72
2021/03/23 09:53:43;;;;;;;6.05;5.47;;;;;;;6.36;38.37;102041.19;4963601;28;97546;-74
2021/03/23 09:56:13;;;;;;;6.72;5.80;;;;;;;6.41;38.02;102030.91;4978212;28;96858;-74
2021/03/23 09:58:41;;;;;;;7.97;5.68;;;;;;;6.43;38.05;102032.81;4976505;28;99186;-75
2021/03/23 10:01:14;;;;;;;6.80;5.25;;;;;;;6.44;38.26;102031.06;4947364;28;98470;-74
2021/03/23 10:03:42;;;;;;;8.80;5.75;;;;;;;6.50;38.00;102037.63;4975864;28;97007;-74
2021/03/23 10:06:13;;;;;;;7.22;6.15;;;;;;;6.50;38.02;102039.34;4967963;28;97219;-74
2021/03/23 10:08:50;;;;;;;5.90;5.05;;;;;;;6.55;38.54;102043.16;4959651;28;98342;-75
2021/03/23 10:11:18;;;;;;;12.15;5.35;;;;;;;6.57;37.79;102037.16;4965317;28;96952;-75
2021/03/23 10:13:49;;;;;;;7.82;5.43;;;;;;;6.55;37.64;102035.25;4963861;28;97022;-75
2021/03/23 10:16:27;;;;;;;6.07;5.57;;;;;;;6.51;38.36;102044.72;4951329;28;96898;-74
2021/03/23 10:18:59;;;;;;;6.25;5.43;;;;;;;6.47;38.12;102032.16;4964148;28;97357;-74
2021/03/23 10:21:30;;;;;;;6.28;5.15;;;;;;;6.49;37.86;102035.78;4966278;28;97863;-74
2021/03/23 10:23:59;;;;;;;5.43;4.93;;;;;;;6.54;37.94;102038.72;4978169;28;97288;-74
2021/03/23 10:26:34;;;;;;;6.70;5.95;;;;;;;6.60;37.77;102034.69;4995914;28;97010;-75
2021/03/23 10:29:14;;;;;;;5.65;5.15;;;;;;;6.71;38.02;102037.91;4959381;28;96933;-74
2021/03/23 10:31:45;;;;;;;5.68;5.18;;;;;;;6.72;37.67;102029.19;4993888;28;100014;-76
2021/03/23 10:34:15;;;;;;;6.50;5.90;;;;;;;6.83;37.60;102033.34;4961720;28;97065;-75
2021/03/23 10:36:46;;;;;;;5.95;5.43;;;;;;;6.82;37.48;102031.50;4963912;28;97341;-72
2021/03/23 10:39:35;;;;;;;7.22;5.47;;;;;;;6.88;37.55;102037.16;4962311;28;97727;-74
2021/03/23 10:42:14;;;;;;;5.95;5.00;;;;;;;6.87;37.00;102038.00;4992487;28;96856;-73
2021/03/23 10:44:42;;;;;;;6.00;5.40;;;;;;;6.88;36.85;102040.72;4993789;28;97346;-75
2021/03/23 10:47:15;;;;;;;7.28;5.38;;;;;;;6.88;37.20;102048.66;4967595;28;97234;-74
2021/03/23 10:49:44;;;;;;;6.55;5.57;;;;;;;6.91;37.30;102050.53;4957320;28;99874;-74
2021/03/23 10:52:31;;;;;;;12.45;5.68;;;;;;;6.87;37.17;102051.22;4980880;28;97752;-76
2021/03/23 10:55:22;;;;;;;6.85;6.07;;;;;;;6.87;37.24;102043.28;4997342;28;97387;-72
2021/03/23 10:57:49;;;;;;;7.88;5.78;;;;;;;6.86;37.00;102039.72;4964900;28;96923;-75
2021/03/23 11:00:26;;;;;;;7.15;5.57;;;;;;;6.95;37.04;102044.59;4961882;28;97588;-75
2021/03/23 11:03:13;;;;;;;6.57;5.88;;;;;;;6.99;36.82;102044.88;4959234;28;99576;-76
2021/03/23 11:05:46;;;;;;;5.80;5.20;;;;;;;7.02;36.93;102042.38;4971814;28;96819;-75
2021/03/23 11:08:14;;;;;;;7.57;5.78;;;;;;;7.05;36.65;102041.66;4965939;28;97284;-74
2021/03/23 11:10:41;;;;;;;6.38;5.78;;;;;;;7.05;36.79;102052.25;4964454;28;97785;-77
2021/03/23 11:13:11;;;;;;;6.35;5.50;;;;;;;7.07;36.35;102034.72;4979339;28;100002;-77
2021/03/23 11:15:41;;;;;;;8.30;5.68;;;;;;;7.04;36.42;102040.72;4948091;28;97507;-74
2021/03/23 11:18:14;;;;;;;8.98;5.95;;;;;;;7.02;36.66;102041.47;4947350;28;97496;-75
2021/03/23 11:20:42;;;;;;;9.05;5.93;;;;;;;7.07;36.84;102040.00;4997790;28;99348;-74
2021/03/23 11:23:34;;;;;;;8.02;6.28;;;;;;;7.12;36.59;102033.22;4947335;28;98497;-75
2021/03/23 11:26:05;;;;;;;8.10;6.72;;;;;;;7.11;36.33;102040.25;4940946;28;96951;-75
2021/03/23 11:28:32;;;;;;;9.13;7.18;;;;;;;7.03;36.89;102030.06;4996510;28;96887;-75
2021/03/23 11:31:02;;;;;;;10.32;7.57;;;;;;;7.03;36.51;102035.38;4962661;28;97611;-74
2021/03/23 11:33:30;;;;;;;7.65;6.85;;;;;;;7.02;36.66;102041.47;4979751;28;98465;-74
2021/03/23 11:35:57;;;;;;;12.30;7.20;;;;;;;7.08;36.56;102040.09;4949295;28;96867;-74
2021/03/23 11:38:24;;;;;;;10.10;7.50;;;;;;;7.05;36.62;102039.00;4958924;28;97109;-75
2021/03/23 11:40:53;;;;;;;10.48;8.48;;;;;;;7.09;36.52;102043.66;4991711;27;98001;-75
2021/03/23 11:43:24;;;;;;;8.73;7.18;;;;;;;7.18;36.64;102038.88;4960977;28;96952;-75
2021/03/23 11:45:52;;;;;;;9.25;6.95;;;;;;;7.25;36.20;102047.19;4964632;28;97378;-75
2021/03/23 11:48:24;;;;;;;8.55;6.55;;;;;;;7.30;36.37;102033.28;4993592;28;96918;-75
2021/03/23 11:50:54;;;;;;;9.57;6.90;;;;;;;7.34;36.26;102032.66;4965360;28;98937;-74
2021/03/23 11:53:22;;;;;;;8.50;7.38;;;;;;;7.31;36.31;102024.53;4945783;28;98502;-75
2021/03/23 11:55:49;;;;;;;11.40;7.10;;;;;;;7.33;36.35;102022.91;5000245;28;96905;-75
2021/03/23 11:58:17;;;;;;;11.40;6.95;;;;;;;7.31;36.39;102022.78;4970247;28;97690;-74